Time;durP1;ratioP1;P1;durP2;ratioP2;P2;SDS_P1;SDS_P2;PMS_P1;PMS_P2;Temp;Humidity;BMP_temperature;BMP_pressure;BME280_temperature;BME280_humidity;BME280_pressure;Samples;Min_cycle;Max_cycle;Signal;HPM_P1;HPM_P2
2022/05/16 00:00:59;;;;;;;;;;;;;;;7.01;88.32;99494.09;1732564;83;21202;-69
2022/05/16 00:03:26;;;;;;;;;;;;;;;6.96;88.67;99499.07;1732831;83;20164;-69
2022/05/16 00:05:52;;;;;;;;;;;;;;;6.91;89.04;99497.80;1733425;83;20434;-68
2022/05/16 00:08:19;;;;;;;;;;;;;;;6.86;89.38;99502.77;1732285;82;20095;-69
2022/05/16 00:10:46;;;;;;;;;;;;;;;6.83;89.57;99499.81;1733123;83;20098;-69
2022/05/16 00:13:13;;;;;;;;;;;;;;;6.81;89.82;99503.39;1732462;83;21116;-70
2022/05/16 00:15:40;;;;;;;;;;;;;;;6.78;90.00;99506.70;1733454;83;20095;-68
2022/05/16 00:18:07;;;;;;;;;;;;;;;6.73;89.98;99510.30;1732555;83;20074;-68
2022/05/16 00:20:33;;;;;;;;;;;;;;;6.68;90.14;99510.91;1732424;83;20099;-68
2022/05/16 00:23:00;;;;;;;;;;;;;;;6.61;90.35;99508.53;1732444;82;20130;-68
2022/05/16 00:25:27;;;;;;;;;;;;;;;6.57;90.45;99511.02;1732722;83;21108;-68
2022/05/16 00:27:54;;;;;;;;;;;;;;;6.54;90.73;99508.06;1732514;83;20115;-68
2022/05/16 00:30:20;;;;;;;;;;;;;;;6.51;90.73;99511.38;1732577;83;20126;-68
2022/05/16 00:32:50;;;;;;;;;;;;;;;6.47;90.94;99507.05;1732555;83;20134;-68
2022/05/16 00:35:18;;;;;;;;;;;;;;;6.44;91.33;99505.45;1732490;83;20107;-69
2022/05/16 00:37:45;;;;;;;;;;;;;;;6.39;91.37;99511.77;1732524;83;21204;-68
2022/05/16 00:40:12;;;;;;;;;;;;;;;6.35;91.52;99509.94;1732367;83;20071;-68
2022/05/16 00:42:40;;;;;;;;;;;;;;;6.31;91.59;99509.70;1732419;83;20466;-68
2022/05/16 00:45:08;;;;;;;;;;;;;;;6.27;91.61;99510.02;1732377;83;20094;-68
2022/05/16 00:47:36;;;;;;;;;;;;;;;6.21;91.85;99511.16;1733176;83;20099;-68
2022/05/16 00:50:03;;;;;;;;;;;;;;;6.17;92.21;99511.48;1737066;82;21148;-68
2022/05/16 00:52:33;;;;;;;;;;;;;;;6.13;92.41;99513.15;1746323;81;20151;-68
2022/05/16 00:55:11;;;;;;;;;;;;;;;6.10;92.78;99517.81;1750032;81;20087;-68
2022/05/16 00:57:45;;;;;;;;;;;;;;;6.09;92.99;99513.45;1746344;82;20394;-69
2022/05/16 01:00:20;;;;;;;;;;;;;;;6.05;93.12;99515.13;1746375;82;20087;-70
2022/05/16 01:05:36;;;;;;;;;;;;;;;5.95;93.66;99512.76;1746423;82;20087;-69
2022/05/16 01:08:07;;;;;;;;;;;;;;;5.89;93.80;99507.09;1746420;82;20083;-69
2022/05/16 01:10:34;;;;;;;;;;;;;;;5.84;94.18;99503.02;1746645;82;20155;-70
2022/05/16 01:13:01;;;;;;;;;;;;;;;5.81;94.08;99502.22;1746476;82;20122;-69
2022/05/16 01:15:34;;;;;;;;;;;;;;;5.78;94.18;99501.43;1746408;82;39032;-69
2022/05/16 01:18:00;;;;;;;;;;;;;;;5.75;94.17;99503.94;1734142;82;20154;-70
2022/05/16 01:20:30;;;;;;;;;;;;;;;5.71;94.20;99498.80;1746381;82;20136;-70
2022/05/16 01:22:56;;;;;;;;;;;;;;;5.69;94.44;99506.44;1746015;82;20447;-70
2022/05/16 01:25:27;;;;;;;;;;;;;;;5.69;94.54;99503.72;1746876;82;20107;-70
2022/05/16 01:27:56;;;;;;;;;;;;;;;5.69;94.86;99505.89;1746452;82;21152;-70
2022/05/16 01:30:26;;;;;;;;;;;;;;;5.69;94.84;99507.25;1746970;81;20079;-69
2022/05/16 01:32:53;;;;;;;;;;;;;;;5.66;94.71;99502.92;1746470;81;20446;-69
2022/05/16 01:35:27;;;;;;;;;;;;;;;5.63;94.59;99502.94;1746499;82;20091;-70
2022/05/16 01:40:39;;;;;;;;;;;;;;;5.54;94.74;99500.01;1747158;82;21841;-70
2022/05/16 01:43:05;;;;;;;;;;;;;;;5.51;94.90;99503.30;1744925;82;20122;-72
2022/05/16 01:45:32;;;;;;;;;;;;;;;5.48;94.90;99495.70;1744593;82;20130;-72
2022/05/16 01:47:59;;;;;;;;;;;;;;;5.45;94.86;99500.89;1744695;82;20683;-70
2022/05/16 01:50:25;;;;;;;;;;;;;;;5.40;94.91;99499.02;1739208;82;20166;-70
2022/05/16 01:52:53;;;;;;;;;;;;;;;5.36;94.93;99499.31;1737083;82;21135;-72
2022/05/16 01:55:19;;;;;;;;;;;;;;;5.28;95.19;99495.28;1745284;82;20091;-72
2022/05/16 01:57:46;;;;;;;;;;;;;;;5.25;95.58;99487.67;1746634;81;20461;-70
2022/05/16 02:00:13;;;;;;;;;;;;;;;5.22;95.65;99487.42;1746439;82;20091;-70
2022/05/16 02:02:42;;;;;;;;;;;;;;;5.17;95.72;99495.11;1746584;81;20071;-70
2022/05/16 02:05:09;;;;;;;;;;;;;;;5.13;95.90;99494.59;1746512;82;21308;-70
2022/05/16 02:07:36;;;;;;;;;;;;;;;5.13;96.46;99485.88;1746434;82;20071;-71
2022/05/16 02:10:03;;;;;;;;;;;;;;;5.15;96.85;99491.04;1746592;82;20095;-71
2022/05/16 02:12:29;;;;;;;;;;;;;;;5.15;96.94;99486.95;1746410;82;20126;-71
2022/05/16 02:14:56;;;;;;;;;;;;;;;5.18;97.13;99485.84;1747220;81;20099;-70
2022/05/16 02:17:22;;;;;;;;;;;;;;;5.18;96.81;99491.84;1718508;83;21165;-70
2022/05/16 02:19:49;;;;;;;;;;;;;;;5.15;96.47;99498.66;1718348;82;20089;-70
2022/05/16 02:25:00;;;;;;;;;;;;;;;5.06;96.28;99493.53;1736107;82;20142;-70
2022/05/16 02:27:26;;;;;;;;;;;;;;;5.01;96.37;99492.75;1736903;81;20080;-72
2022/05/16 02:29:52;;;;;;;;;;;;;;;5.00;96.82;99496.02;1748452;82;21110;-71
2022/05/16 02:32:18;;;;;;;;;;;;;;;5.02;97.22;99497.09;1748097;81;20087;-71
2022/05/16 02:34:45;;;;;;;;;;;;;;;5.05;97.42;99493.81;1748031;82;20124;-71
2022/05/16 02:37:13;;;;;;;;;;;;;;;5.09;97.46;99500.33;1748028;82;20426;-70
2022/05/16 02:39:44;;;;;;;;;;;;;;;5.11;97.71;99503.03;1748083;81;20082;-69
2022/05/16 02:42:08;;;;;;;;;;;;;;;5.16;97.83;99498.11;1748080;81;21175;-70
2022/05/16 02:44:35;;;;;;;;;;;;;;;5.21;97.81;99504.85;1747383;82;20071;-69
2022/05/16 02:47:05;;;;;;;;;;;;;;;5.23;97.81;99506.20;1746937;82;20127;-69
2022/05/16 02:49:31;;;;;;;;;;;;;;;5.26;97.67;99508.91;1746992;82;20123;-69
2022/05/16 02:51:58;;;;;;;;;;;;;;;5.27;97.49;99507.81;1746578;82;20087;-72
2022/05/16 02:54:24;;;;;;;;;;;;;;;5.27;97.47;99515.42;1746425;82;21122;-70
2022/05/16 02:56:51;;;;;;;;;;;;;;;5.27;97.50;99515.42;1746415;82;20135;-70
2022/05/16 02:59:17;;;;;;;;;;;;;;;5.27;97.50;99519.51;1746479;82;20446;-71
2022/05/16 03:01:44;;;;;;;;;;;;;;;5.28;97.70;99514.33;1746561;82;20087;-71
2022/05/16 03:04:12;;;;;;;;;;;;;;;5.32;97.84;99515.95;1746937;82;20406;-71
2022/05/16 03:06:38;;;;;;;;;;;;;;;5.35;97.91;99513.20;1736339;81;21065;-71
2022/05/16 03:09:06;;;;;;;;;;;;;;;5.41;98.23;99516.16;1747203;82;20237;-71
2022/05/16 03:11:34;;;;;;;;;;;;;;;5.47;98.34;99518.57;1748056;82;20460;-72
2022/05/16 03:14:00;;;;;;;;;;;;;;;5.54;98.49;99517.70;1733601;82;20136;-70
2022/05/16 03:16:26;;;;;;;;;;;;;;;5.62;98.61;99517.66;1718449;83;20117;-69
2022/05/16 03:18:53;;;;;;;;;;;;;;;5.72;98.74;99518.94;1718327;83;22058;-70
2022/05/16 03:21:20;;;;;;;;;;;;;;;5.82;99.04;99516.11;1718286;82;20090;-70
2022/05/16 03:23:46;;;;;;;;;;;;;;;5.94;99.24;99515.77;1718331;83;20117;-69
2022/05/16 03:26:14;;;;;;;;;;;;;;;6.06;99.35;99519.48;1718698;83;20089;-69
2022/05/16 03:28:41;;;;;;;;;;;;;;;6.17;99.55;99513.65;1726258;82;20150;-69
2022/05/16 03:31:09;;;;;;;;;;;;;;;6.33;100.00;99516.23;1723156;81;21138;-69
2022/05/16 03:33:35;;;;;;;;;;;;;;;6.54;100.00;99517.61;1718265;83;20129;-69
2022/05/16 03:36:02;;;;;;;;;;;;;;;6.80;100.00;99520.86;1718272;83;20190;-68
2022/05/16 03:41:14;;;;;;;;;;;;;;;7.31;100.00;99524.27;1718356;83;20077;-68
2022/05/16 03:43:40;;;;;;;;;;;;;;;7.53;99.96;99526.64;1718237;83;21143;-70
2022/05/16 03:46:09;;;;;;;;;;;;;;;7.72;99.32;99528.55;1718266;83;20121;-69
2022/05/16 03:48:36;;;;;;;;;;;;;;;7.85;98.73;99530.53;1718260;83;20089;-71
2022/05/16 03:51:02;;;;;;;;;;;;;;;7.99;98.14;99524.56;1718097;83;20152;-70
2022/05/16 03:53:29;;;;;;;;;;;;;;;8.13;97.39;99523.20;1715328;83;20125;-70
2022/05/16 03:55:55;;;;;;;;;;;;;;;8.23;96.21;99526.58;1704776;84;21783;-70
2022/05/16 03:58:22;;;;;;;;;;;;;;;8.34;95.54;99520.41;1704889;84;20117;-70
2022/05/16 04:00:50;;;;;;;;;;;;;;;8.43;94.39;99520.52;1704837;84;20077;-71
2022/05/16 04:03:16;;;;;;;;;;;;;;;8.52;93.47;99522.25;1704809;84;20084;-72
2022/05/16 04:05:42;;;;;;;;;;;;;;;8.63;92.75;99522.88;1704798;83;20436;-71
2022/05/16 04:08:09;;;;;;;;;;;;;;;8.73;92.24;99519.91;1704865;83;21155;-71
2022/05/16 04:10:37;;;;;;;;;;;;;;;8.84;91.79;99522.70;1704808;83;20140;-71
2022/05/16 04:13:03;;;;;;;;;;;;;;;8.93;91.08;99522.80;1704869;83;20113;-71
2022/05/16 04:15:31;;;;;;;;;;;;;;;9.04;90.45;99527.50;1704723;83;20631;-71
2022/05/16 04:17:57;;;;;;;;;;;;;;;9.14;90.15;99523.19;1704772;84;20097;-71
2022/05/16 04:20:24;;;;;;;;;;;;;;;9.24;89.56;99525.11;1704812;83;21149;-70
2022/05/16 04:22:51;;;;;;;;;;;;;;;9.36;88.52;99529.25;1704655;84;20136;-70
2022/05/16 04:25:18;;;;;;;;;;;;;;;9.49;88.38;99527.04;1704854;84;20421;-70
2022/05/16 04:27:46;;;;;;;;;;;;;;;9.63;87.12;99525.08;1704757;83;20088;-70
2022/05/16 04:30:13;;;;;;;;;;;;;;;9.78;85.72;99526.09;1704770;83;20121;-70
2022/05/16 04:32:40;;;;;;;;;;;;;;;9.96;84.61;99526.19;1704856;84;21133;-70
2022/05/16 04:35:07;;;;;;;;;;;;;;;10.15;84.40;99526.23;1704641;84;20401;-71
2022/05/16 04:37:34;;;;;;;;;;;;;;;10.37;83.68;99521.32;1704759;84;20097;-71
2022/05/16 04:40:02;;;;;;;;;;;;;;;10.63;82.62;99515.92;1704844;83;20120;-71
2022/05/16 04:42:40;;;;;;;;;;;;;;;10.88;81.48;99513.84;1704784;84;20120;-70
2022/05/16 04:45:22;;;;;;;;;;;;;;;11.10;79.64;99512.91;1704781;84;22191;-71
2022/05/16 04:47:51;;;;;;;;;;;;;;;11.29;78.96;99512.63;1701448;84;20077;-70
2022/05/16 04:50:21;;;;;;;;;;;;;;;11.42;76.47;99510.30;1705115;83;20113;-70
2022/05/16 04:52:48;;;;;;;;;;;;;;;11.49;76.51;99510.63;1704841;83;20418;-70
2022/05/16 04:55:15;;;;;;;;;;;;;;;11.59;75.01;99516.34;1715829;83;20436;-70
2022/05/16 04:57:42;;;;;;;;;;;;;;;11.62;74.54;99525.33;1718347;83;21139;-73
2022/05/16 05:00:11;;;;;;;;;;;;;;;11.63;74.76;99526.13;1718472;83;20085;-71
2022/05/16 05:02:39;;;;;;;;;;;;;;;11.66;74.48;99522.17;1718507;83;20073;-71
2022/05/16 05:05:07;;;;;;;;;;;;;;;11.68;74.14;99522.66;1718146;83;20121;-71
2022/05/16 05:07:35;;;;;;;;;;;;;;;11.73;74.86;99518.94;1718442;83;20488;-71
2022/05/16 05:15:31;;;;;;;;;;;;;;;12.07;74.27;99513.44;1718361;83;20109;-71
2022/05/16 05:17:58;;;;;;;;;;;;;;;12.17;73.66;99516.39;1718273;83;20117;-71
2022/05/16 05:20:24;;;;;;;;;;;;;;;12.20;73.55;99510.23;1718399;82;20413;-71
2022/05/16 05:22:50;;;;;;;;;;;;;;;12.21;72.69;99513.23;1718209;83;21105;-71
2022/05/16 05:25:18;;;;;;;;;;;;;;;12.18;72.93;99516.63;1718163;83;20428;-71
2022/05/16 05:27:48;;;;;;;;;;;;;;;12.14;72.98;99519.80;1718333;83;20121;-70
2022/05/16 05:30:21;;;;;;;;;;;;;;;12.12;73.52;99521.53;1718204;83;20134;-71
2022/05/16 05:32:48;;;;;;;;;;;;;;;12.14;73.81;99516.48;1718365;83;20172;-71
2022/05/16 05:35:15;;;;;;;;;;;;;;;12.20;74.00;99524.80;1718274;83;21153;-72
2022/05/16 05:37:44;;;;;;;;;;;;;;;12.27;73.42;99527.06;1718167;83;20078;-71
2022/05/16 05:40:11;;;;;;;;;;;;;;;12.35;73.97;99524.86;1718332;83;20153;-71
2022/05/16 05:42:37;;;;;;;;;;;;;;;12.52;73.24;99524.81;1718216;83;20444;-71
2022/05/16 05:45:05;;;;;;;;;;;;;;;12.68;70.99;99522.33;1718442;83;20117;-71
2022/05/16 05:47:32;;;;;;;;;;;;;;;12.79;68.69;99525.49;1718175;83;22076;-71
2022/05/16 05:49:59;;;;;;;;;;;;;;;12.86;69.56;99526.59;1718240;83;20090;-71
2022/05/16 05:52:29;;;;;;;;;;;;;;;12.99;69.80;99517.05;1718219;83;20086;-71
2022/05/16 05:54:56;;;;;;;;;;;;;;;13.13;69.39;99512.12;1718381;83;20600;-71
2022/05/16 05:57:25;;;;;;;;;;;;;;;13.31;67.92;99511.44;1718331;83;20101;-71
2022/05/16 05:59:52;;;;;;;;;;;;;;;13.46;65.25;99505.34;1718180;83;21825;-71
2022/05/16 06:02:19;;;;;;;;;;;;;;;13.59;64.94;99507.59;1718355;83;20436;-73
2022/05/16 06:04:45;;;;;;;;;;;;;;;13.68;64.85;99502.81;1736086;82;20075;-72
2022/05/16 06:07:11;;;;;;;;;;;;;;;13.77;64.43;99505.73;1746777;82;20131;-72
2022/05/16 06:09:39;;;;;;;;;;;;;;;13.91;64.47;99508.76;1746436;81;20071;-72
2022/05/16 06:12:07;;;;;;;;;;;;;;;14.04;59.74;99498.81;1746501;82;21773;-72
2022/05/16 06:14:34;;;;;;;;;;;;;;;14.17;60.09;99507.94;1746950;82;20106;-72
2022/05/16 06:17:01;;;;;;;;;;;;;;;14.35;59.85;99516.28;1746556;82;20126;-72
2022/05/16 06:19:27;;;;;;;;;;;;;;;14.50;56.60;99512.86;1746297;82;20147;-72
2022/05/16 06:21:53;;;;;;;;;;;;;;;14.61;55.54;99515.19;1746421;81;20091;-72
2022/05/16 06:27:06;;;;;;;;;;;;;;;14.71;53.38;99505.07;1741135;82;20506;-72
2022/05/16 06:29:34;;;;;;;;;;;;;;;14.82;54.05;99508.42;1730080;83;20083;-72
2022/05/16 06:32:00;;;;;;;;;;;;;;;15.00;52.37;99505.43;1749553;80;20176;-72
2022/05/16 06:34:27;;;;;;;;;;;;;;;15.05;51.38;99506.55;1749843;82;20229;-72
2022/05/16 06:36:53;;;;;;;;;;;;;;;15.02;50.54;99503.13;1711455;84;21093;-72
2022/05/16 06:39:19;;;;;;;;;;;;;;;15.03;51.71;99506.89;1711072;84;20174;-72
2022/05/16 06:41:45;;;;;;;;;;;;;;;15.07;50.85;99505.05;1749378;82;20989;-72
2022/05/16 06:44:14;;;;;;;;;;;;;;;15.09;50.75;99506.09;1750148;81;20117;-72
2022/05/16 06:46:44;;;;;;;;;;;;;;;15.13;49.60;99502.28;1751659;80;20500;-72
2022/05/16 06:49:11;;;;;;;;;;;;;;;15.20;50.09;99495.59;1752365;82;21104;-73
2022/05/16 06:51:37;;;;;;;;;;;;;;;15.34;50.96;99499.38;1714749;83;20076;-71
2022/05/16 06:54:05;;;;;;;;;;;;;;;15.49;48.87;99502.00;1714907;82;20434;-71
2022/05/16 06:56:31;;;;;;;;;;;;;;;15.60;49.57;99488.52;1748930;81;20229;-71
2022/05/16 06:58:58;;;;;;;;;;;;;;;15.72;48.85;99500.33;1715426;83;20111;-71
2022/05/16 07:01:24;;;;;;;;;;;;;;;15.83;48.27;99501.45;1748430;82;22032;-71
2022/05/16 07:03:51;;;;;;;;;;;;;;;15.87;47.31;99502.94;1714486;83;20107;-71
2022/05/16 07:06:17;;;;;;;;;;;;;;;15.86;46.47;99502.70;1747919;82;20452;-71
2022/05/16 07:08:44;;;;;;;;;;;;;;;15.91;47.76;99489.20;1747807;82;20121;-71
2022/05/16 07:11:10;;;;;;;;;;;;;;;16.01;46.21;99503.34;1747873;82;20134;-71
2022/05/16 07:13:36;;;;;;;;;;;;;;;16.11;45.61;99495.91;1714428;83;21817;-71
2022/05/16 07:16:04;;;;;;;;;;;;;;;16.17;43.72;99501.39;1748174;80;20101;-71
2022/05/16 07:18:30;;;;;;;;;;;;;;;16.25;44.08;99489.13;1714727;83;20083;-71
2022/05/16 07:20:58;;;;;;;;;;;;;;;16.30;42.95;99504.91;1748505;80;20477;-71
2022/05/16 07:23:24;;;;;;;;;;;;;;;16.34;43.13;99500.27;1715519;83;20093;-71
2022/05/16 07:28:36;;;;;;;;;;;;;;;16.57;42.35;99496.31;1713973;83;20083;-71
2022/05/16 07:31:03;;;;;;;;;;;;;;;16.62;41.59;99505.75;1748155;80;20149;-71
2022/05/16 07:33:29;;;;;;;;;;;;;;;16.49;41.78;99499.48;1749187;82;20110;-71
2022/05/16 07:35:55;;;;;;;;;;;;;;;16.34;41.53;99491.95;1715972;83;20095;-71
2022/05/16 07:38:23;;;;;;;;;;;;;;;16.39;42.31;99497.23;1749411;82;21140;-71
2022/05/16 07:40:49;;;;;;;;;;;;;;;16.63;38.36;99502.40;1715926;83;20450;-71
2022/05/16 07:43:18;;;;;;;;;;;;;;;16.82;38.62;99483.89;1749396;82;20121;-71
2022/05/16 07:45:44;;;;;;;;;;;;;;;17.00;39.98;99498.77;1716004;83;20075;-71
2022/05/16 07:48:12;;;;;;;;;;;;;;;17.25;38.67;99488.27;1749330;82;20185;-71
2022/05/16 07:50:38;;;;;;;;;;;;;;;17.38;38.49;99486.95;1716203;83;21093;-71
2022/05/16 07:53:11;;;;;;;;;;;;;;;17.30;38.07;99496.31;1749256;82;20118;-71
2022/05/16 07:55:35;;;;;;;;;;;;;;;17.29;38.76;99488.57;1715975;83;20406;-71
2022/05/16 07:58:02;;;;;;;;;;;;;;;17.46;38.96;99480.39;1751250;81;20109;-71
2022/05/16 08:00:28;;;;;;;;;;;;;;;17.71;38.83;99462.92;1714704;83;20120;-71
2022/05/16 08:02:56;;;;;;;;;;;;;;;17.85;37.25;99477.09;1714755;83;21063;-71
2022/05/16 08:05:22;;;;;;;;;;;;;;;17.73;36.83;99492.51;1752637;82;20366;-71
2022/05/16 08:10:37;;;;;;;;;;;;;;;17.85;39.28;99480.45;1750762;80;20168;-86
2022/05/16 08:13:06;;;;;;;;;;;;;;;18.00;37.57;99485.09;1752303;82;20126;-76
2022/05/16 08:15:33;;;;;;;;;;;;;;;17.80;37.09;99487.11;1714670;83;21731;-76
2022/05/16 08:18:02;;;;;;;;;;;;;;;17.81;37.77;99500.63;1714660;83;20096;-75
2022/05/16 08:20:28;;;;;;;;;;;;;;;18.11;37.09;99497.22;1752798;80;20149;-73
2022/05/16 08:22:55;;;;;;;;;;;;;;;18.56;38.74;99486.73;1713861;82;20114;-74
2022/05/16 08:25:22;;;;;;;;;;;;;;;19.21;36.33;99484.41;1751574;82;20140;-86
2022/05/16 08:27:51;;;;;;;;;;;;;;;19.63;35.33;99489.81;1714759;82;21085;-73
2022/05/16 08:30:21;;;;;;;;;;;;;;;19.70;34.17;99484.31;1752622;80;20122;-77
2022/05/16 08:32:47;;;;;;;;;;;;;;;19.74;31.89;99490.14;1746111;82;20138;-77
2022/05/16 08:35:14;;;;;;;;;;;;;;;19.86;34.10;99483.52;1714219;82;20111;-76
2022/05/16 08:40:32;;;;;;;;;;;;;;;20.16;32.66;99474.31;1746317;82;21166;-77
2022/05/16 08:43:02;;;;;;;;;;;;;;;20.34;31.08;99493.40;1745918;82;20082;-76
2022/05/16 08:45:37;;;;;;;;;;;;;;;20.47;30.64;99484.20;1746846;81;20103;-76
2022/05/16 08:48:08;;;;;;;;;;;;;;;20.44;30.21;99489.95;1746619;82;20095;-77
2022/05/16 08:50:44;;;;;;;;;;;;;;;20.10;30.66;99493.36;1746460;81;20082;-76
2022/05/16 08:53:24;;;;;;;;;;;;;;;20.06;31.00;99493.91;1746542;82;21772;-76
2022/05/16 08:55:52;;;;;;;;;;;;;;;20.40;30.62;99482.94;1745976;82;20095;-76
2022/05/16 08:58:38;;;;;;;;;;;;;;;20.62;30.10;99483.16;1746301;82;20082;-76
2022/05/16 09:01:07;;;;;;;;;;;;;;;20.61;30.11;99487.12;1746427;82;20523;-75
2022/05/16 09:03:50;;;;;;;;;;;;;;;20.29;29.95;99490.95;1746288;82;20119;-75
2022/05/16 09:06:21;;;;;;;;;;;;;;;19.94;32.13;99496.95;1746344;82;21156;-75
2022/05/16 09:08:55;;;;;;;;;;;;;;;19.70;32.32;99494.86;1746394;82;20095;-76
2022/05/16 09:11:45;;;;;;;;;;;;;;;19.50;31.07;99490.60;1746192;81;20123;-83
2022/05/16 09:14:21;;;;;;;;;;;;;;;19.59;32.63;99489.77;1663277;86;20185;-75
2022/05/16 09:17:15;;;;;;;;;;;;;;;19.95;30.44;99481.84;1662386;86;20449;-74
2022/05/16 09:19:55;;;;;;;;;;;;;;;20.28;31.54;99477.61;1716506;82;21160;-75
2022/05/16 09:22:41;;;;;;;;;;;;;;;20.74;29.15;99476.70;1751193;82;20520;-69
2022/05/16 09:25:11;;;;;;;;;;;;;;;21.14;30.56;99470.00;1751487;82;20102;-73
2022/05/16 09:30:25;;;;;;;;;;;;;;;21.17;29.37;99475.61;1731076;82;20103;-84
2022/05/16 09:33:09;;;;;;;;;;;;;;;20.97;28.91;99472.27;1751199;82;21154;-77
2022/05/16 09:35:44;;;;;;;;;;;;;;;20.70;31.05;99466.69;1751163;82;20115;-83
2022/05/16 09:38:10;;;;;;;;;;;;;;;20.28;30.18;99483.19;1751369;82;20118;-77
2022/05/16 09:40:39;;;;;;;;;;;;;;;19.85;30.29;99476.94;1751074;82;20111;-83
2022/05/16 09:43:08;;;;;;;;;;;;;;;19.37;30.86;99478.89;1751119;82;20155;-73
2022/05/16 09:45:35;;;;;;;;;;;;;;;19.33;31.53;99467.49;1751070;82;21263;-77
2022/05/16 09:48:03;;;;;;;;;;;;;;;19.55;32.34;99458.88;1751012;82;20146;-82
2022/05/16 09:50:29;;;;;;;;;;;;;;;19.70;30.62;99463.42;1752720;82;20083;-74
2022/05/16 09:53:09;;;;;;;;;;;;;;;19.49;30.74;99461.16;1751067;82;20111;-77
2022/05/16 09:55:44;;;;;;;;;;;;;;;19.21;31.45;99462.95;1751435;82;20118;-75
2022/05/16 09:58:18;;;;;;;;;;;;;;;18.97;32.77;99466.98;1751008;82;21138;-76
2022/05/16 10:00:59;;;;;;;;;;;;;;;18.77;33.37;99471.03;1751968;82;20075;-79
2022/05/16 10:03:36;;;;;;;;;;;;;;;18.70;33.38;99475.88;1751106;82;20099;-76
2022/05/16 10:06:08;;;;;;;;;;;;;;;18.66;34.42;99474.22;1751183;82;20115;-74
2022/05/16 10:08:41;;;;;;;;;;;;;;;18.65;34.41;99472.02;1751151;82;20099;-73
2022/05/16 10:11:24;;;;;;;;;;;;;;;18.61;34.06;99466.98;1751137;82;21261;-75
2022/05/16 10:13:52;;;;;;;;;;;;;;;18.56;34.84;99467.85;1750999;82;20071;-71
2022/05/16 10:16:18;;;;;;;;;;;;;;;18.49;36.03;99458.22;1752415;82;20111;-74
2022/05/16 10:18:54;;;;;;;;;;;;;;;18.64;35.92;99463.47;1752597;82;20672;-76
2022/05/16 10:21:35;;;;;;;;;;;;;;;18.81;34.28;99460.77;1752832;82;20095;-75
2022/05/16 10:24:07;;;;;;;;;;;;;;;18.97;34.18;99457.84;1751480;82;21130;-73
2022/05/16 10:26:38;;;;;;;;;;;;;;;19.19;34.58;99444.44;1751201;82;20094;-80
2022/05/16 10:29:07;;;;;;;;;;;;;;;19.38;34.38;99457.42;1751616;82;20075;-78
2022/05/16 10:34:39;;;;;;;;;;;;;;;19.22;34.46;99449.25;1751128;82;20110;-73
2022/05/16 10:37:03;;;;;;;;;;;;;;;18.93;34.88;99450.83;1700064;83;21888;-74
2022/05/16 10:39:30;;;;;;;;;;;;;;;18.80;35.64;99454.98;1751143;82;20110;-72
2022/05/16 10:42:17;;;;;;;;;;;;;;;18.77;34.56;99452.95;1713288;84;20099;-72
2022/05/16 10:44:48;;;;;;;;;;;;;;;18.97;33.84;99443.93;1713343;82;20477;-73
2022/05/16 10:47:29;;;;;;;;;;;;;;;19.19;33.72;99444.44;1746529;81;20075;-72
2022/05/16 10:50:23;;;;;;;;;;;;;;;19.50;35.38;99440.49;1750261;81;21151;-73
2022/05/16 10:52:53;;;;;;;;;;;;;;;19.89;33.61;99440.17;1746472;81;20434;-79
2022/05/16 10:55:19;;;;;;;;;;;;;;;19.98;34.18;99425.36;1746374;82;20411;-76
2022/05/16 10:57:57;;;;;;;;;;;;;;;20.03;33.91;99435.56;1743640;82;20087;-80
2022/05/16 11:00:40;;;;;;;;;;;;;;;20.07;33.02;99430.84;1733893;82;20410;-74
2022/05/16 11:03:19;;;;;;;;;;;;;;;20.11;33.24;99435.05;1734212;83;21085;-73
2022/05/16 11:06:25;;;;;;;;;;;;;;;20.10;33.13;99433.45;1730503;83;20156;-72
2022/05/16 11:09:09;;;;;;;;;;;;;;;19.98;32.48;99439.28;1683729;85;20138;-74
2022/05/16 11:11:42;;;;;;;;;;;;;;;20.07;32.12;99436.41;1683618;85;20169;-71
2022/05/16 11:14:48;;;;;;;;;;;;;;;20.52;31.99;99424.70;1709384;82;20119;-72
2022/05/16 11:17:28;;;;;;;;;;;;;;;21.09;31.26;99417.54;1716683;83;20690;-77
2022/05/16 11:20:12;;;;;;;;;;;;;;;21.35;28.29;99422.11;1733353;82;20099;-79
2022/05/16 11:22:44;;;;;;;;;;;;;;;20.90;28.46;99421.19;1704954;83;20177;-87
2022/05/16 11:25:43;;;;;;;;;;;;;;;20.47;30.15;99422.86;1704748;83;20085;-83
2022/05/16 11:28:18;;;;;;;;;;;;;;;20.11;30.46;99430.88;1721316;83;20083;-76
2022/05/16 11:30:57;;;;;;;;;;;;;;;19.73;31.14;99434.23;1705550;83;20087;-79
2022/05/16 11:33:29;;;;;;;;;;;;;;;19.42;32.03;99427.66;1714934;83;20118;-77
2022/05/16 11:36:01;;;;;;;;;;;;;;;19.49;33.47;99419.99;1732664;83;20127;-79
2022/05/16 11:38:59;;;;;;;;;;;;;;;19.64;33.52;99423.97;1732547;83;20725;-83
2022/05/16 11:41:41;;;;;;;;;;;;;;;19.72;33.56;99416.50;1733233;83;20147;-78
2022/05/16 11:44:24;;;;;;;;;;;;;;;19.51;31.89;99425.42;1732527;82;21152;-80
2022/05/16 11:46:57;;;;;;;;;;;;;;;19.30;33.64;99413.97;1661333;82;20423;-81
2022/05/16 11:49:46;;;;;;;;;;;;;;;19.29;33.42;99411.78;1731603;82;20098;-77
2022/05/16 11:52:28;;;;;;;;;;;;;;;19.28;33.80;99416.33;1721296;82;20501;-77
2022/05/16 11:54:57;;;;;;;;;;;;;;;19.24;34.42;99422.44;1676298;83;20124;-76
2022/05/16 12:00:37;;;;;;;;;;;;;;;19.86;34.63;99408.91;1732435;82;20166;-76
2022/05/16 12:03:08;;;;;;;;;;;;;;;20.36;32.94;99404.02;1741884;82;20457;-75
2022/05/16 12:05:56;;;;;;;;;;;;;;;20.38;31.59;99400.28;1752777;82;20415;-74
2022/05/16 12:08:49;;;;;;;;;;;;;;;20.17;32.51;99397.89;1749969;82;20457;-72
2022/05/16 12:11:16;;;;;;;;;;;;;;;19.99;33.40;99399.09;1747333;82;21170;-72
2022/05/16 12:14:06;;;;;;;;;;;;;;;19.98;33.55;99396.10;1742696;82;20399;-75
2022/05/16 12:16:42;;;;;;;;;;;;;;;19.96;32.66;99399.86;1743126;81;20122;-75
2022/05/16 12:19:14;;;;;;;;;;;;;;;19.92;31.95;99401.22;1705717;84;20574;-72
2022/05/16 12:21:59;;;;;;;;;;;;;;;20.11;33.74;99390.47;1747310;80;20122;-71
2022/05/16 12:24:30;;;;;;;;;;;;;;;20.53;32.06;99394.83;1747946;82;21591;-71
2022/05/16 12:27:12;;;;;;;;;;;;;;;20.69;30.79;99381.41;1747883;81;20095;-83
2022/05/16 12:29:44;;;;;;;;;;;;;;;20.67;30.80;99375.42;1748028;82;20119;-83
2022/05/16 12:32:34;;;;;;;;;;;;;;;20.54;29.92;99374.13;1750743;81;20098;-74
2022/05/16 12:35:11;;;;;;;;;;;;;;;20.21;30.66;99373.05;1726288;82;20162;-75
2022/05/16 12:37:48;;;;;;;;;;;;;;;19.84;32.35;99380.62;1687619;82;22622;-72
2022/05/16 12:40:20;;;;;;;;;;;;;;;19.74;32.59;99381.52;1691219;84;20143;-73
2022/05/16 12:43:09;;;;;;;;;;;;;;;19.60;32.41;99378.60;1702754;83;20445;-73
2022/05/16 12:45:52;;;;;;;;;;;;;;;19.36;33.55;99372.91;1722837;83;20148;-77
2022/05/16 12:48:59;;;;;;;;;;;;;;;19.17;33.78;99376.42;1686167;85;20119;-79
2022/05/16 12:51:55;;;;;;;;;;;;;;;19.04;33.90;99382.25;1722777;82;22199;-77
2022/05/16 12:55:05;;;;;;;;;;;;;;;19.07;33.85;99378.69;1673632;85;20100;-79
2022/05/16 12:57:57;;;;;;;;;;;;;;;19.39;33.73;99365.78;1722841;83;20153;-75
2022/05/16 13:00:51;;;;;;;;;;;;;;;19.72;33.52;99377.52;1687197;84;20114;-74
2022/05/16 13:03:31;;;;;;;;;;;;;;;19.72;32.46;99376.13;1718539;83;20100;-79
2022/05/16 13:06:04;;;;;;;;;;;;;;;19.64;33.74;99369.67;1682980;84;20081;-75
2022/05/16 13:08:42;;;;;;;;;;;;;;;19.50;32.97;99368.11;1707863;84;20121;-80
2022/05/16 13:11:15;;;;;;;;;;;;;;;19.40;34.20;99368.19;1706502;84;20413;-72
2022/05/16 13:13:57;;;;;;;;;;;;;;;19.41;34.10;99366.20;1690904;85;20121;-72
2022/05/16 13:16:27;;;;;;;;;;;;;;;19.61;35.12;99370.45;1693959;84;20118;-73
2022/05/16 13:19:10;;;;;;;;;;;;;;;20.06;33.44;99367.93;1719490;83;21135;-71
2022/05/16 13:21:56;;;;;;;;;;;;;;;20.60;33.07;99364.22;1670841;84;20409;-72
2022/05/16 13:24:25;;;;;;;;;;;;;;;21.32;32.15;99348.10;1718033;83;20148;-71
2022/05/16 13:29:46;;;;;;;;;;;;;;;22.64;28.71;99342.07;1693484;83;20500;-76
2022/05/16 13:32:23;;;;;;;;;;;;;;;22.95;28.26;99339.05;1687378;84;22046;-78
2022/05/16 13:34:52;;;;;;;;;;;;;;;22.63;27.68;99353.06;1746535;82;20183;-80
2022/05/16 13:37:30;;;;;;;;;;;;;;;21.93;28.42;99346.27;1715551;83;20446;-70
2022/05/16 13:40:02;;;;;;;;;;;;;;;21.30;29.07;99356.07;1749351;82;20145;-76
2022/05/16 13:42:32;;;;;;;;;;;;;;;20.88;30.17;99350.43;1715948;83;20112;-76
2022/05/16 13:45:00;;;;;;;;;;;;;;;20.58;31.33;99350.66;1747943;80;21159;-84
2022/05/16 13:47:34;;;;;;;;;;;;;;;20.31;31.43;99349.21;1715855;83;20232;-75
2022/05/16 13:50:00;;;;;;;;;;;;;;;20.13;32.64;99353.27;1748708;80;20145;-79